Terminal Aerodrome Forecast
Issued by NWS

Home | Current Version | Previous Version | Text Only | Print | Product List | Glossary On
Versions: 1 2 3 4 5 6 7 8 9 10 11 12 13 14 15 16 17 18 19 20 21 22 23 24 25 26 27 28
000
FTUS41 KPBZ 240255 AAA
TAFAGC
TAF AMD
KAGC 240255Z 2403/2424 23005KT P6SM -RA BKN100
      TEMPO 2403/2405 3SM -RA BKN025
     FM240600 25004KT 3SM BR BKN015
     FM241400 27006KT P6SM SCT050=

USA.gov is the U.S. government's official web portal to all federal, state and local government web resources and services.